Погода Серкейра-Сезарна 2 недели

Сан-Паулу, Бразилия

15 - 27 июня
  • 15июня
    Сегодня
    +18°
    +30°
    Ясно и безоблачно
    ВремяПогодаТемператураВлажностьДавлениеВетер, м/сВероятность осадков
    00:00Ясно и безоблачно+21°C56 %698 мм3.3 м/с5 %
    03:00Ясно и безоблачно+19°C58 %698 мм2.9 м/с5 %
    06:00Ясно и безоблачно+19°C66 %698 мм3.2 м/с5 %
    09:00Ясно и безоблачно+22°C60 %700 мм3.1 м/с5 %
    12:00Ясно и безоблачно+27°C41 %700 мм4.1 м/с5 %
    15:00Ясно и безоблачно+29°C36 %699 мм3.0 м/с5 %
    18:00Ясно и безоблачно+25°C56 %698 мм2.0 м/с5 %
    21:00Ясно и безоблачно+23°C57 %698 мм2.5 м/с5 %
  • 16июня
    Воскресенье
    +17°
    +29°
    Ясно и безоблачно
    ВремяПогодаТемператураВлажностьДавлениеВетер, м/сВероятность осадков
    00:00Ясно и безоблачно+20°C63 %698 мм2.5 м/с5 %
    03:00Ясно и безоблачно+19°C60 %697 мм1.7 м/с5 %
    06:00Ясно и безоблачно+19°C64 %696 мм2.3 м/с5 %
    09:00Ясно и безоблачно+22°C59 %698 мм2.8 м/с5 %
    12:00Ясно и безоблачно+28°C39 %699 мм3.7 м/с5 %
    15:00Ясно и безоблачно+29°C36 %697 мм3.2 м/с5 %
    18:00Ясно и безоблачно+24°C57 %696 мм2.3 м/с5 %
    21:00Ясно и безоблачно+23°C56 %696 мм2.4 м/с5 %
  • 17июня
    Понедельник
    +17°
    +29°
    Ясно и безоблачно
    ВремяПогодаТемператураВлажностьДавлениеВетер, м/сВероятность осадков
    00:00Ясно и безоблачно+20°C63 %695 мм2.3 м/с5 %
    03:00Ясно и безоблачно+18°C68 %694 мм2.4 м/с5 %
    06:00Небольшая облачность+18°C70 %695 мм3.0 м/с5 %
    09:00Практически безоблачно+21°C58 %696 мм3.5 м/с5 %
    12:00Небольшая облачность+27°C40 %697 мм4.8 м/с5 %
    15:00Ясно и безоблачно+29°C35 %695 мм4.0 м/с5 %
    18:00Ясно и безоблачно+25°C49 %694 мм2.3 м/с5 %
    21:00Ясно и безоблачно+22°C60 %695 мм2.8 м/с5 %
  • 18июня
    Вторник
    +18°
    +29°
    Небольшая облачность
    ВремяПогодаТемператураВлажностьДавлениеВетер, м/сВероятность осадков
    00:00Ясно и безоблачно+19°C61 %694 мм2.6 м/с5 %
    03:00Ясно и безоблачно+17°C60 %694 мм2.7 м/с5 %
    06:00Практически безоблачно+18°C57 %694 мм3.1 м/с5 %
    09:00Небольшая облачность+21°C54 %696 мм3.4 м/с5 %
    12:00Небольшая облачность+27°C34 %697 мм5.6 м/с5 %
    15:00Небольшая облачность+29°C31 %695 мм3.5 м/с5 %
    18:00Ясно и безоблачно+25°C49 %695 мм2.2 м/с5 %
    21:00Ясно и безоблачно+22°C48 %695 мм2.8 м/с5 %
Мы используем cookies
Соглашаюсь